createdAt,value
2023-05-19T00:01:36.857Z,3.14
2023-05-19T00:06:52.442Z,3.06
2023-05-19T00:12:07.935Z,3.06
2023-05-19T00:17:24.115Z,3.23
2023-05-19T00:22:38.958Z,3.13
2023-05-19T00:27:55.745Z,3.08
2023-05-19T00:33:10.844Z,2.96
2023-05-19T00:38:26.759Z,3.15
2023-05-19T00:43:41.028Z,3.15
2023-05-19T00:48:56.626Z,3.04
2023-05-19T02:23:53.247Z,2.89
2023-05-19T02:29:02.343Z,2.96
2023-05-19T02:34:17.203Z,2.97
2023-05-19T02:39:34.628Z,2.93
2023-05-19T03:21:39.460Z,2.98
2023-05-19T03:26:55.597Z,2.91
2023-05-19T03:32:13.892Z,2.83
2023-05-19T03:37:29.216Z,2.84
2023-05-19T03:42:45.355Z,2.84
2023-05-19T03:48:01.919Z,2.77
2023-05-19T03:53:17.658Z,2.88
2023-05-19T03:58:33.197Z,2.76
2023-05-19T04:03:47.743Z,2.81
2023-05-19T04:09:04.895Z,2.9
2023-05-19T04:14:21.687Z,2.87
2023-05-19T04:19:37.199Z,2.83
2023-05-19T04:24:52.708Z,2.81
2023-05-19T04:30:07.654Z,2.76
2023-05-19T04:35:23.075Z,2.78
2023-05-19T04:40:38.625Z,2.78
2023-05-19T04:45:54.140Z,2.79
2023-05-19T04:51:09.039Z,2.73
2023-05-19T04:56:24.621Z,2.89
2023-05-19T05:01:39.730Z,2.63
2023-05-19T05:06:54.972Z,2.88
2023-05-19T05:12:11.110Z,2.72
2023-05-19T05:17:25.515Z,2.79
2023-05-19T05:22:40.882Z,2.92
2023-05-19T05:27:56.356Z,2.84
2023-05-19T05:33:13.538Z,2.75
2023-05-19T05:38:27.416Z,3.01
2023-05-19T05:43:43.601Z,2.84
2023-05-19T06:31:13.257Z,2.82
2023-05-19T06:36:28.613Z,2.88
2023-05-19T06:41:37.559Z,2.91
2023-05-19T06:46:53.339Z,2.95
2023-05-19T06:52:08.550Z,3.07
2023-05-19T06:57:24.155Z,2.89
2023-05-19T07:00:48.198Z,3.08
2023-05-19T07:06:08.705Z,3.06
2023-05-19T07:11:20.533Z,3.11
2023-05-19T07:16:36.213Z,3.32
2023-05-19T07:27:08.543Z,3.06
2023-05-19T07:32:24.158Z,3.08
2023-05-19T07:37:40.073Z,3.21
2023-05-19T07:42:55.983Z,3.15
2023-05-19T07:48:11.951Z,3.31
2023-05-19T07:53:29.235Z,3.41
2023-05-19T07:58:43.456Z,3.27
2023-05-19T08:04:00.185Z,3.42
2023-05-19T08:09:15.111Z,3.57
2023-05-19T08:14:31.276Z,3.68
2023-05-19T08:19:46.789Z,3.7
2023-05-19T08:25:03.013Z,3.59
2023-05-19T08:30:19.762Z,3.47
2023-05-19T08:35:35.930Z,3.62
2023-05-19T08:40:52.742Z,3.63
2023-05-19T08:46:08.882Z,3.64
2023-05-19T08:51:25.069Z,3.63
2023-05-19T08:56:39.910Z,3.69
2023-05-19T09:01:55.591Z,3.73
2023-05-19T09:07:12.264Z,3.69
2023-05-19T09:12:28.365Z,3.77
2023-05-19T09:17:44.948Z,3.66
2023-05-19T09:23:00.144Z,3.73
2023-05-19T09:28:16.242Z,3.63
2023-05-19T09:33:35.683Z,3.47
2023-05-19T09:38:50.489Z,3.87
2023-05-19T09:44:05.370Z,3.78
2023-05-19T09:49:21.563Z,3.66
2023-05-19T09:54:37.036Z,3.63
2023-05-19T09:59:52.541Z,3.65
2023-05-19T10:05:08.282Z,3.81
2023-05-19T10:10:23.945Z,3.71
2023-05-19T10:16:01.201Z,3.8
2023-05-19T10:20:55.949Z,3.81
2023-05-19T10:26:10.809Z,3.64
2023-05-19T10:31:25.735Z,3.74
2023-05-19T10:36:42.504Z,3.47
2023-05-19T10:41:58.013Z,3.59
2023-05-19T10:47:14.628Z,3.59
2023-05-19T10:52:30.379Z,3.76
2023-05-19T10:57:46.459Z,3.65
2023-05-19T11:03:02.914Z,3.74
2023-05-19T11:08:18.866Z,3.51
2023-05-19T11:13:33.675Z,3.54
2023-05-19T11:18:49.378Z,3.6
2023-05-19T11:45:09.362Z,3.54
2023-05-19T11:50:26.171Z,3.6
2023-05-19T11:55:41.031Z,3.49
2023-05-19T12:00:57.239Z,3.67
2023-05-19T12:06:12.988Z,3.56
2023-05-19T12:11:27.609Z,3.71
2023-05-19T12:16:44.508Z,3.61
2023-05-19T12:21:59.268Z,3.52
2023-05-19T12:27:15.535Z,3.43
2023-05-19T12:32:31.129Z,3.45
2023-05-19T12:37:45.817Z,3.49
2023-05-19T12:43:02.625Z,3.43
2023-05-19T12:48:18.103Z,3.48
2023-05-19T12:53:34.470Z,3.6
2023-05-19T12:58:49.836Z,3.55
2023-05-19T13:04:07.780Z,3.59
2023-05-19T13:09:22.194Z,3.6
2023-05-19T13:14:38.323Z,3.44
2023-05-19T13:19:54.143Z,3.64
2023-05-19T13:25:10.020Z,3.73
2023-05-19T13:30:25.502Z,3.4
2023-05-19T13:35:40.466Z,3.66
2023-05-19T13:40:57.864Z,3.88
2023-05-19T13:46:13.108Z,3.73
2023-05-19T13:51:28.241Z,3.63
2023-05-19T14:13:42.689Z,3.78
2023-05-19T14:23:03.285Z,3.74
2023-05-19T14:28:19.272Z,3.48
2023-05-19T14:33:35.988Z,3.59
2023-05-19T14:38:48.579Z,3.73
2023-05-19T14:44:04.088Z,3.82
2023-05-19T14:49:21.553Z,3.7
2023-05-19T14:54:35.848Z,4.04
2023-05-19T14:59:50.678Z,3.77
2023-05-19T15:05:06.826Z,4.03
2023-05-19T15:10:22.324Z,3.62
2023-05-19T15:15:37.831Z,3.73
2023-05-19T15:20:53.391Z,3.72
2023-05-19T15:26:09.518Z,3.66
2023-05-19T15:31:25.904Z,3.6
2023-05-19T15:36:42.478Z,3.68
2023-05-19T15:41:57.381Z,3.66
2023-05-19T15:47:12.221Z,3.54
2023-05-19T15:52:28.996Z,3.65
2023-05-19T15:57:44.624Z,3.86
2023-05-19T16:03:00.702Z,3.63
2023-05-19T16:08:14.996Z,3.7
2023-05-19T16:13:29.836Z,3.64
2023-05-19T16:18:46.887Z,3.48
2023-05-19T16:24:02.878Z,3.74
2023-05-19T16:29:18.991Z,3.79
2023-05-19T16:34:35.796Z,3.74
2023-05-19T16:39:51.910Z,3.8
2023-05-19T16:45:07.430Z,3.91
2023-05-19T16:50:24.308Z,3.52
2023-05-19T16:55:39.084Z,3.61
2023-05-19T17:00:55.261Z,3.87
2023-05-19T17:06:10.199Z,3.69
2023-05-19T17:11:25.720Z,3.69
2023-05-19T17:16:42.668Z,3.79
2023-05-19T17:21:57.373Z,3.97
2023-05-19T17:27:12.863Z,3.83
2023-05-19T17:32:30.767Z,3.78
2023-05-19T17:37:45.889Z,3.57
2023-05-19T17:43:00.742Z,3.89
2023-05-19T17:48:17.527Z,3.96
2023-05-19T17:53:32.437Z,4.51
2023-05-19T17:58:47.916Z,4
2023-05-19T18:04:06.777Z,3.88
2023-05-19T18:09:20.867Z,3.98
2023-05-19T18:14:37.075Z,4.06
2023-05-19T18:19:52.741Z,3.94
2023-05-19T18:25:08.700Z,3.83
2023-05-19T18:30:24.898Z,3.82
2023-05-19T18:35:39.753Z,3.92
2023-05-19T18:40:54.644Z,3.93
2023-05-19T18:46:11.190Z,3.84
2023-05-19T18:51:26.950Z,3.76
2023-05-19T19:38:46.003Z,3.68
2023-05-19T19:44:00.850Z,3.67
2023-05-19T19:49:16.557Z,3.56
2023-05-19T19:54:32.588Z,3.59
2023-05-19T19:59:49.342Z,3.65
2023-05-19T20:05:05.512Z,3.62
2023-05-19T20:10:20.485Z,3.57
2023-05-19T20:15:35.289Z,3.7
2023-05-19T20:20:51.407Z,3.49
2023-05-19T20:26:13.968Z,3.58
2023-05-19T20:31:24.437Z,3.51
2023-05-19T20:36:40.572Z,3.51
2023-05-19T20:41:56.725Z,3.62
2023-05-19T20:47:12.889Z,3.69
2023-05-19T20:52:27.753Z,3.54
2023-05-19T20:57:45.099Z,3.59
2023-05-19T21:03:01.200Z,3.61
2023-05-19T21:08:16.268Z,3.52
2023-05-19T21:13:31.804Z,3.52
2023-05-19T21:18:47.498Z,3.47
2023-05-19T21:24:04.082Z,3.46
2023-05-19T21:29:20.221Z,3.3
2023-05-19T21:34:35.795Z,3.39
2023-05-19T21:39:50.701Z,3.56
2023-05-19T21:45:05.503Z,3.34
2023-05-19T21:50:21.704Z,3.47
2023-05-19T21:55:37.903Z,3.34
2023-05-19T22:00:53.374Z,3.52
2023-05-19T22:06:09.622Z,3.44
2023-05-19T22:11:25.087Z,3.44
2023-05-19T22:16:41.544Z,3.47
2023-05-19T22:22:14.995Z,3.41
2023-05-19T22:27:12.948Z,3.41
2023-05-19T22:32:28.561Z,3.34
2023-05-19T22:37:44.533Z,3.28
2023-05-19T22:42:59.476Z,3.42
2023-05-19T22:48:15.602Z,3.37
2023-05-19T22:53:31.131Z,3.19
2023-05-19T22:58:46.683Z,3.15
2023-05-19T23:04:03.632Z,3.07
2023-05-19T23:51:36.330Z,3.11
2023-05-19T23:56:46.350Z,3.22
